Grand Teton National Park, WY

3:47 AM MST on February 10, 2016 (GMT -0700)
Dubois Muni, Dubois, WY | | Change Station
CLOSE
Current Station
Airport
Location: Dubois Muni, Dubois, WY,
Elevation: 7297 ft
Nearby Weather Stations

Elev 7297 ft 43.55 °N, 109.69 °W | Updated 12 minutes ago

Partly Cloudy
Partly Cloudy
28 °F
Feels Like 16 °F
N
18
Wind Variable Wind from WNW

Today
High -- | Low -- °F
--% Chance of Precip.
Yesterday
High -- | Low -- °F
Precip. -- in
Pressure 30.28 in
Visibility 10.0 miles
Clouds Clear
Windchill 16 °F
Dew Point 10 °F
Humidity 47%
Rainfall 0.00 in
Snow Depth Not available.
7:27 AM 5:43 PM
Waxing Crescent, 5% visible
METAR KDUB 101035Z AUTO 30016KT 10SM CLR M02/M12 A3028 RMK AO2
Pressure 30.28 in
Visibility 10.0 miles
Clouds Clear
Windchill 16 °F
Dew Point 10 °F
Humidity 47%
Rainfall 0.00 in
Snow Depth Not available.
7:27 AM 5:43 PM
Waxing Crescent, 5% visible
METAR KDUB 101035Z AUTO 30016KT 10SM CLR M02/M12 A3028 RMK AO2

10-Day Weather Forecast

Almanac

Astronomy

Feb. 10, 2016 Rise Set
Actual Time
Civil Twilight
Nautical Twilight
Astronomical Twilight
Moon
Length of Visible Light
Length of Day
Tomorrow will be .
, % of the Moon is Illuminated

Today's Extremes

State Highs State Lows

Community

WunderPhotos

Upload Photos

1,891,830 photos uploaded!

WunderBlog® & News

Nearby

Air Quality

  Air Quality AQ Index Pollutant
Not available.

Snow Depth

Station Depth Elevation

Earthquake Activity

City Distance Mag. Time & Date
Minimum magnitude displayed is 2.5.

Coastal Water Temperatures

Place Temperature

Stations

Nearby Weather Stations

Station Location Temp. Windchill Dew Point Humidity Wind Precip. Elev Updated Type
                   

Watches & Warnings

There are currently no watches in effect.